This is the latest recevied weather packets stored in our database for station/object DC4THF-13. If no packets are shown the sender has not sent any weather packets the latest 10 day(s).
| Time | Temp. | Humidity | Pressure | Rain* | Wind** | Luminosity | Snow |
|---|---|---|---|---|---|---|---|
| 1787687588 | 17.22° C | 61% | 1012.7 hPa | 0 mm | - | - | - |
| 1787686985 | 17.22° C | 61% | 1012.7 hPa | 0 mm | - | - | - |
| 1787686382 | 17.78° C | 56% | 1012.5 hPa | 0 mm | - | - | - |
| 1787685779 | 17.78° C | 55% | 1012.4 hPa | 0 mm | - | - | - |
| 1787685176 | 17.78° C | 55% | 1012.3 hPa | 0 mm | - | - | - |
| 1787684573 | 17.78° C | 54% | 1012.2 hPa | 0 mm | - | - | - |
| 1787683970 | 18.33° C | 53% | 1012.1 hPa | 0 mm | - | - | - |
| 1787683366 | 18.89° C | 51% | 1012.1 hPa | 0 mm | - | - | - |
| 1787682763 | 19.44° C | 51% | 1011.8 hPa | 0 mm | - | - | - |
| 1787682159 | 19.44° C | 50% | 1011.6 hPa | 0 mm | - | - | - |
| 1787681555 | 20° C | 49% | 1011.4 hPa | 0 mm | - | - | - |
| 1787680952 | 20.56° C | 48% | 1011.4 hPa | 0 mm | - | - | - |
| 1787680348 | 20.56° C | 47% | 1011.3 hPa | 0 mm | - | - | - |
| 1787679745 | 21.11° C | 45% | 1010.9 hPa | 0 mm | - | - | - |
| 1787679140 | 21.67° C | 45% | 1010.8 hPa | 0 mm | - | - | - |
| 1787678538 | 21.67° C | 44% | 1010.6 hPa | 0 mm | - | - | - |
| 1787677934 | 22.22° C | 43% | 1010.4 hPa | 0 mm | - | - | - |
| 1787677391 | 22.78° C | 40% | 1010 hPa | 0 mm | - | - | - |
| 1787676789 | 23.89° C | 37% | 1009.8 hPa | 0 mm | - | - | - |
| 1787676186 | 24.44° C | 36% | 1009.7 hPa | 0 mm | - | - | - |
| 1787675582 | 25.56° C | 34% | 1009.9 hPa | 0 mm | - | - | - |
| 1787674979 | 25° C | 36% | 1010.4 hPa | 0 mm | - | - | - |
| 1787674377 | 25° C | 36% | 1010.5 hPa | 0 mm | - | - | - |
| 1787673773 | 25° C | 37% | 1010.5 hPa | 0 mm | - | - | - |
| 1787673170 | 25° C | 36% | 1010.5 hPa | 0 mm | - | - | - |
* Rain latest hour (hover to see other rain measurements)
** Current wind speed in m/s (hover to see current wind gust speed)